Terminal Aerodrome Forecast
Issued by NWS Paducah, KY

Home | Current Version | Previous Version | Text Only | Print | Product List | Glossary On
Versions: 1 2 3 4 5 6 7 8 9 10 11 12 13 14 15 16 17 18
766
FTUS43 KPAH 180540
TAFPAH
TAF
KPAH 180540Z 1806/1906 20006KT P6SM BKN250
     FM181000 20004KT P6SM VCSH OVC050
     FM181500 22007KT P6SM VCSH OVC030
     FM182000 22007KT P6SM VCSH OVC025
     FM190000 VRB03KT P6SM BKN030=

USA.gov is the U.S. government's official web portal to all federal, state and local government web resources and services.